Time;durP1;ratioP1;P1;durP2;ratioP2;P2;SDS_P1;SDS_P2;PMS_P1;PMS_P2;Temp;Humidity;BMP_temperature;BMP_pressure;BME280_temperature;BME280_humidity;BME280_pressure;Samples;Min_cycle;Max_cycle;Signal;HPM_P1;HPM_P2
2022/02/07 00:00:33;;;;;;;0.10;0.10;;;4.50;99.90;4.30;98553.00;;;;4986710;27;87928;-75
2022/02/07 00:05:28;;;;;;;0.33;0.20;;;4.50;99.90;4.30;98561.00;;;;4981885;28;97445;-72
2022/02/07 00:07:56;;;;;;;0.93;0.40;;;4.50;99.90;4.30;98561.00;;;;4970976;28;87203;-71
2022/02/07 00:10:22;;;;;;;0.10;0.10;;;4.50;99.90;4.30;98559.00;;;;4953633;28;89617;-72
2022/02/07 00:12:48;;;;;;;0.13;0.13;;;4.50;99.90;4.30;98550.00;;;;4956125;28;88121;-69
2022/02/07 00:15:17;;;;;;;0.67;0.23;;;4.50;99.90;4.30;98553.00;;;;4969802;28;88948;-71
2022/02/07 00:17:43;;;;;;;0.20;0.20;;;4.50;99.90;4.30;98560.00;;;;4954884;28;104471;-71
2022/02/07 00:20:16;;;;;;;0.70;0.30;;;4.50;99.90;4.30;98563.00;;;;4973206;28;87837;-69
2022/02/07 00:22:42;;;;;;;0.83;0.30;;;4.50;99.90;4.30;98584.00;;;;4975656;28;87901;-71
2022/02/07 00:25:09;;;;;;;0.30;0.30;;;4.50;99.90;4.30;98581.00;;;;4975023;28;93297;-70
2022/02/07 00:27:36;;;;;;;0.17;0.17;;;4.40;99.90;4.30;98593.00;;;;4974664;28;88524;-70
2022/02/07 00:30:09;;;;;;;0.53;0.27;;;4.40;99.90;4.30;98586.00;;;;4975305;28;87710;-71
2022/02/07 00:32:35;;;;;;;0.40;0.23;;;4.40;99.90;4.30;98596.00;;;;4975927;28;86874;-70
2022/02/07 00:35:03;;;;;;;0.33;0.30;;;4.50;99.90;4.30;98609.00;;;;4960847;28;88550;-71
2022/02/07 00:37:31;;;;;;;0.17;0.13;;;4.40;99.90;4.30;98629.00;;;;4955808;28;87807;-72
2022/02/07 00:40:18;;;;;;;0.30;0.27;;;4.50;99.90;4.30;98636.00;;;;4956435;28;88661;-70
2022/02/07 00:45:38;;;;;;;0.53;0.27;;;4.50;99.90;4.30;98636.00;;;;4967135;28;87898;-71
2022/02/07 00:48:07;;;;;;;0.53;0.40;;;4.50;99.90;4.30;98632.00;;;;4973183;28;88184;-73
2022/02/07 00:50:35;;;;;;;0.10;0.10;;;4.50;99.90;4.30;98639.00;;;;4974667;28;88874;-70
2022/02/07 00:53:01;;;;;;;0.30;0.20;;;4.50;99.90;4.30;98619.00;;;;4989841;28;88712;-71
2022/02/07 00:55:27;;;;;;;0.30;0.27;;;4.50;99.90;4.30;98623.00;;;;4969486;28;87832;-71
2022/02/07 00:57:53;;;;;;;2.10;0.30;;;4.50;99.90;4.30;98629.00;;;;4963051;28;112928;-70
2022/02/07 01:00:20;;;;;;;1.00;0.30;;;4.50;99.90;4.30;98631.00;;;;4964978;28;101785;-71
2022/02/07 01:02:46;;;;;;;0.43;0.40;;;4.50;99.90;4.30;98640.00;;;;4963909;28;95416;-73
2022/02/07 01:05:13;;;;;;;0.30;0.30;;;4.50;99.90;4.30;98639.00;;;;4973811;28;88742;-71
2022/02/07 01:07:42;;;;;;;0.20;0.20;;;4.40;99.90;4.30;98641.00;;;;4978281;28;101755;-70
2022/02/07 01:10:08;;;;;;;0.20;0.20;;;4.40;99.90;4.30;98645.00;;;;4977738;28;88494;-70
2022/02/07 01:15:23;;;;;;;0.20;0.20;;;4.40;99.90;4.30;98649.00;;;;4975711;28;87917;-70
2022/02/07 01:23:12;;;;;;;0.20;0.20;;;4.40;99.90;4.10;98667.00;;;;4972105;28;93013;-72
2022/02/07 01:50:45;;;;;;;0.93;0.40;;;4.00;99.90;3.80;98711.00;;;;4954849;28;106301;-70
2022/02/07 01:55:48;;;;;;;0.30;0.23;;;4.00;99.90;3.90;98717.00;;;;4969598;28;88068;-71
2022/02/07 01:58:13;;;;;;;1.63;0.63;;;4.00;99.90;4.00;98708.00;;;;4977093;28;88861;-72
2022/02/07 02:00:42;;;;;;;1.43;0.37;;;4.10;99.90;4.00;98713.00;;;;4977547;28;88248;-70
2022/02/07 02:03:09;;;;;;;3.87;0.40;;;4.10;99.90;4.00;98734.00;;;;4992135;27;88027;-71
2022/02/07 02:05:37;;;;;;;3.27;0.83;;;4.20;99.90;4.00;98723.00;;;;4978206;28;88058;-72
2022/02/07 02:08:11;;;;;;;1.23;0.20;;;4.20;99.90;4.10;98729.00;;;;4976692;28;87656;-72
2022/02/07 02:10:42;;;;;;;0.40;0.30;;;4.30;99.90;4.10;98742.00;;;;4977521;28;89112;-70
2022/02/07 02:13:12;;;;;;;0.50;0.40;;;4.60;99.90;4.10;98704.00;;;;4974616;28;89274;-70
2022/02/07 02:47:22;;;;;;;0.33;0.33;;;3.40;99.90;3.10;98867.00;;;;4975248;28;88085;-72
2022/02/07 02:50:01;;;;;;;1.13;0.47;;;3.30;99.90;3.10;98865.00;;;;4978421;28;88894;-71
2022/02/07 02:52:27;;;;;;;1.50;0.47;;;3.30;99.90;3.00;98874.00;;;;4954555;28;90023;-69
2022/02/07 02:54:53;;;;;;;0.23;0.23;;;3.30;99.90;3.00;98903.00;;;;4956585;28;103504;-72
2022/02/07 02:57:18;;;;;;;0.40;0.30;;;3.20;99.90;2.90;98901.00;;;;4956008;28;109955;-70
2022/02/07 02:59:44;;;;;;;1.70;0.30;;;3.20;99.90;2.90;98915.00;;;;4956288;28;108377;-71
2022/02/07 03:02:10;;;;;;;2.13;0.30;;;3.10;99.90;2.80;98914.00;;;;4955575;28;118975;-70
2022/02/07 03:04:35;;;;;;;0.13;0.13;;;3.00;99.90;2.80;98920.00;;;;4955732;28;118229;-69
2022/02/07 03:07:01;;;;;;;1.30;0.67;;;3.00;99.90;2.70;98927.00;;;;4956559;28;109991;-69
2022/02/07 03:09:29;;;;;;;4.53;0.60;;;2.90;99.90;2.70;98940.00;;;;4956507;28;104996;-69
2022/02/07 03:11:55;;;;;;;0.47;0.20;;;2.90;99.90;2.60;98941.00;;;;4972569;28;88108;-68
2022/02/07 03:14:34;;;;;;;5.40;0.30;;;2.90;99.90;2.60;98951.00;;;;4976142;28;88888;-71
2022/02/07 03:16:59;;;;;;;0.83;0.40;;;2.80;99.90;2.60;98966.00;;;;4976893;28;87734;-69
2022/02/07 03:19:25;;;;;;;2.10;0.20;;;2.80;99.90;2.60;98966.00;;;;4976189;28;108379;-69
2022/02/07 03:21:51;;;;;;;1.73;0.40;;;2.80;99.90;2.70;98969.00;;;;4976071;28;88616;-71
2022/02/07 03:24:17;;;;;;;4.00;0.40;;;2.90;99.90;2.70;98997.00;;;;4990185;28;105277;-68
2022/02/07 03:26:45;;;;;;;0.20;0.13;;;2.90;99.90;2.80;99005.00;;;;4957684;28;87720;-70
2022/02/07 03:29:15;;;;;;;0.17;0.17;;;2.80;99.90;2.80;99013.00;;;;4970276;28;87938;-68
2022/02/07 03:31:41;;;;;;;2.33;0.33;;;3.00;99.90;2.90;99018.00;;;;4958737;28;110799;-68
2022/02/07 03:34:06;;;;;;;1.17;0.47;;;3.10;99.90;2.90;99030.00;;;;4974510;28;87856;-70
2022/02/07 03:36:33;;;;;;;0.57;0.37;;;3.20;99.90;2.90;99027.00;;;;4975563;28;109599;-70
2022/02/07 03:39:00;;;;;;;0.50;0.40;;;3.10;99.90;3.00;99040.00;;;;4969556;28;88883;-70
2022/02/07 03:41:26;;;;;;;0.40;0.40;;;3.20;99.90;3.00;99050.00;;;;4956988;28;104462;-69
2022/02/07 03:43:52;;;;;;;0.70;0.20;;;3.80;99.90;3.00;99062.00;;;;4956198;28;87640;-68
2022/02/07 03:46:18;;;;;;;0.90;0.40;;;3.20;99.90;3.00;99069.00;;;;4956022;28;108698;-68
2022/02/07 03:48:44;;;;;;;0.40;0.20;;;3.10;99.90;3.00;99080.00;;;;4967578;28;109020;-68
2022/02/07 03:51:10;;;;;;;2.27;0.30;;;3.20;99.90;3.00;99086.00;;;;4974988;28;119038;-70
2022/02/07 03:53:36;;;;;;;0.30;0.30;;;3.30;99.90;3.00;99089.00;;;;4972916;28;100721;-69
2022/02/07 03:56:02;;;;;;;0.30;0.20;;;3.20;99.90;3.00;99101.00;;;;4976289;28;86989;-69
2022/02/07 03:58:28;;;;;;;0.90;0.50;;;3.30;99.90;3.00;99100.00;;;;4976676;28;87631;-69
2022/02/07 04:00:55;;;;;;;0.10;0.10;;;3.20;99.90;3.00;99101.00;;;;4964874;28;117219;-69
2022/02/07 04:03:25;;;;;;;0.30;0.30;;;3.30;99.90;3.00;99101.00;;;;4955592;28;88715;-69
2022/02/07 04:06:01;;;;;;;0.57;0.23;;;3.20;99.90;3.00;99115.00;;;;4956949;28;87625;-69
2022/02/07 04:08:32;;;;;;;2.77;0.60;;;3.60;99.90;3.00;99132.00;;;;4956094;28;87789;-69
2022/02/07 04:11:19;;;;;;;1.20;0.50;;;3.20;99.90;3.00;99131.00;;;;4955695;28;89079;-69
2022/02/07 04:13:51;;;;;;;0.17;0.17;;;3.20;99.90;3.00;99142.00;;;;4956109;28;87867;-70
2022/02/07 04:16:18;;;;;;;1.00;0.30;;;3.20;99.90;3.00;99155.00;;;;4955952;28;87727;-71
2022/02/07 04:19:20;;;;;;;0.30;0.27;;;3.20;99.90;3.00;99151.00;;;;4956448;28;87693;-68
2022/02/07 04:21:37;;;;;;;0.20;0.20;;;3.40;99.90;3.00;99162.00;;;;4953677;28;86875;-68
2022/02/07 04:24:04;;;;;;;2.20;0.40;;;3.30;99.90;3.10;99174.00;;;;4955744;28;87684;-71
2022/02/07 04:26:29;;;;;;;0.37;0.37;;;3.20;99.90;3.00;99169.00;;;;4954449;28;87966;-70
2022/02/07 04:28:55;;;;;;;0.30;0.10;;;3.20;99.90;3.10;99173.00;;;;4968913;28;107448;-70
2022/02/07 04:31:21;;;;;;;1.97;0.43;;;3.20;99.90;3.10;99200.00;;;;4968150;28;117718;-67
2022/02/07 04:33:46;;;;;;;0.77;0.53;;;3.20;99.90;3.10;99216.00;;;;4973717;28;88038;-70
2022/02/07 04:36:13;;;;;;;1.67;0.83;;;3.20;99.90;3.10;99213.00;;;;4973739;28;87951;-69
2022/02/07 04:38:39;;;;;;;1.00;0.50;;;3.30;99.90;3.10;99222.00;;;;4974055;28;87487;-69
2022/02/07 04:41:07;;;;;;;1.63;0.60;;;3.30;99.90;3.10;99220.00;;;;4969859;28;117579;-70
2022/02/07 04:43:33;;;;;;;0.40;0.40;;;3.40;99.90;3.10;99220.00;;;;4959323;28;87701;-69
2022/02/07 04:46:12;;;;;;;0.87;0.43;;;3.30;99.90;3.10;99227.00;;;;4959918;28;86902;-69
2022/02/07 04:54:07;;;;;;;1.00;0.73;;;3.30;99.90;3.20;99261.00;;;;4957165;28;88784;-69
2022/02/07 04:59:21;;;;;;;4.93;0.90;;;3.40;99.90;3.20;99271.00;;;;4958276;28;87785;-69
2022/02/07 05:01:51;;;;;;;1.53;0.73;;;3.40;99.90;3.20;99266.00;;;;4973079;28;87745;-71
2022/02/07 05:04:27;;;;;;;1.27;0.53;;;4.80;99.90;3.20;99273.00;;;;4958684;28;87695;-70
2022/02/07 05:15:06;;;;;;;0.87;0.60;;;3.50;99.90;3.20;99308.00;;;;4987609;28;87773;-72
2022/02/07 05:17:36;;;;;;;0.97;0.90;;;3.40;99.90;3.20;99304.00;;;;4993352;28;87930;-71
2022/02/07 05:20:03;;;;;;;4.57;1.40;;;3.50;99.90;3.30;99311.00;;;;4977738;28;88638;-69
2022/02/07 05:22:30;;;;;;;3.87;1.37;;;3.50;99.90;3.30;99310.00;;;;4992500;28;91027;-69
2022/02/07 05:24:57;;;;;;;4.97;2.03;;;3.50;99.90;3.20;99325.00;;;;4976019;28;90102;-70
2022/02/07 05:27:22;;;;;;;3.03;1.27;;;3.50;99.90;3.20;99330.00;;;;4978498;28;87999;-72
2022/02/07 05:29:48;;;;;;;2.73;1.20;;;3.40;99.90;3.10;99334.00;;;;4992920;28;87767;-70
2022/02/07 05:32:15;;;;;;;2.17;0.80;;;3.30;99.90;3.00;99351.00;;;;4977850;28;88317;-69
2022/02/07 05:34:42;;;;;;;4.10;1.47;;;3.20;99.90;2.90;99355.00;;;;4976170;28;88658;-69
2022/02/07 05:37:11;;;;;;;9.70;2.10;;;3.20;99.90;2.90;99350.00;;;;4977263;28;86874;-69
2022/02/07 05:39:37;;;;;;;0.77;0.77;;;3.20;99.90;2.90;99359.00;;;;4970886;28;87935;-69
2022/02/07 05:42:06;;;;;;;2.00;1.20;;;3.10;99.90;2.90;99375.00;;;;4958422;28;87868;-72
2022/02/07 05:44:33;;;;;;;2.20;1.10;;;3.10;99.90;2.90;99386.00;;;;4964399;28;88656;-69
2022/02/07 05:46:59;;;;;;;9.77;1.20;;;3.10;99.90;2.90;99386.00;;;;4970192;28;87915;-70
2022/02/07 05:49:25;;;;;;;4.50;1.60;;;3.20;99.90;2.90;99392.00;;;;4974599;28;87859;-67
2022/02/07 05:51:54;;;;;;;8.53;1.63;;;3.20;99.90;3.00;99409.00;;;;4974241;28;88374;-68
2022/02/07 05:54:21;;;;;;;2.60;1.63;;;3.10;99.90;3.00;99413.00;;;;4973729;28;88184;-68
2022/02/07 05:56:47;;;;;;;1.60;1.30;;;3.10;99.90;2.90;99417.00;;;;4989605;28;96511;-68
2022/02/07 05:59:12;;;;;;;3.00;1.07;;;3.20;99.90;2.90;99438.00;;;;4985005;28;89654;-67
2022/02/07 06:01:38;;;;;;;3.93;1.00;;;3.10;99.90;2.90;99444.00;;;;4974814;28;87702;-69
2022/02/07 06:04:04;;;;;;;3.67;1.67;;;3.10;99.90;2.80;99432.00;;;;4969659;28;110089;-73
2022/02/07 06:06:29;;;;;;;3.47;1.20;;;3.10;99.90;2.80;99448.00;;;;4973508;28;111019;-71
2022/02/07 06:08:55;;;;;;;3.50;1.00;;;3.00;99.90;2.70;99454.00;;;;4970747;28;109022;-71
2022/02/07 06:11:21;;;;;;;4.17;1.70;;;2.90;99.90;2.60;99467.00;;;;4971507;28;103244;-72
2022/02/07 06:13:47;;;;;;;2.40;1.27;;;2.90;99.90;2.60;99476.00;;;;4970674;28;116233;-74
2022/02/07 06:16:16;;;;;;;6.93;1.87;;;2.80;99.90;2.60;99489.00;;;;4974299;28;110263;-69
2022/02/07 06:18:43;;;;;;;4.33;1.40;;;2.80;99.90;2.50;99488.00;;;;4974973;28;87812;-71
2022/02/07 06:21:12;;;;;;;3.83;1.43;;;2.70;99.90;2.50;99498.00;;;;4957457;28;88116;-72
2022/02/07 06:23:39;;;;;;;2.23;1.43;;;2.60;99.90;2.50;99478.00;;;;4977732;28;87829;-70
2022/02/07 06:26:04;;;;;;;6.07;0.97;;;2.70;99.90;2.50;99507.00;;;;4978578;28;87164;-71
2022/02/07 06:28:30;;;;;;;3.87;0.90;;;2.70;99.90;2.50;99511.00;;;;4976846;28;109973;-71
2022/02/07 06:30:56;;;;;;;5.00;1.47;;;2.70;99.90;2.50;99528.00;;;;4977447;28;88961;-68
2022/02/07 06:33:22;;;;;;;3.23;1.53;;;2.70;99.90;2.50;99537.00;;;;4975603;28;117737;-75
2022/02/07 06:35:48;;;;;;;1.67;1.13;;;2.70;99.90;2.50;99526.00;;;;4991690;28;87569;-76
2022/02/07 06:38:14;;;;;;;5.10;1.20;;;2.80;99.90;2.50;99540.00;;;;4976311;28;87703;-75
2022/02/07 06:40:40;;;;;;;2.00;0.80;;;2.70;99.90;2.50;99549.00;;;;4975812;28;117684;-77
2022/02/07 06:43:05;;;;;;;4.63;1.00;;;2.80;99.90;2.50;99543.00;;;;4957274;28;103900;-81
2022/02/07 06:45:31;;;;;;;1.53;0.70;;;2.70;99.90;2.40;99562.00;;;;4953791;28;113121;-75
2022/02/07 06:47:57;;;;;;;2.73;0.93;;;2.70;99.90;2.40;99568.00;;;;4971631;28;87816;-74
2022/02/07 06:50:23;;;;;;;1.80;0.73;;;2.60;99.90;2.30;99580.00;;;;4970729;28;116273;-76
2022/02/07 06:52:48;;;;;;;1.53;0.67;;;2.50;99.90;2.30;99595.00;;;;4956712;28;92547;-75
2022/02/07 06:55:14;;;;;;;2.37;0.83;;;2.50;99.90;2.30;99600.00;;;;4957348;28;110335;-74
2022/02/07 06:57:40;;;;;;;4.90;1.13;;;2.50;99.90;2.30;99595.00;;;;4961537;28;106882;-75
2022/02/07 07:00:10;;;;;;;2.77;1.43;;;2.50;99.90;2.30;99623.00;;;;4971167;28;90394;-74
2022/02/07 07:02:37;;;;;;;3.43;0.90;;;2.50;99.90;2.30;99609.00;;;;4972107;28;88059;-76
2022/02/07 07:05:10;;;;;;;1.10;0.80;;;2.50;99.90;2.30;99624.00;;;;4960390;28;87778;-74
2022/02/07 07:07:37;;;;;;;5.80;1.10;;;2.50;99.90;2.40;99620.00;;;;4974908;28;87899;-76
2022/02/07 07:10:05;;;;;;;3.53;1.20;;;2.60;99.90;2.40;99623.00;;;;4974510;28;88744;-74
2022/02/07 07:12:31;;;;;;;1.37;1.17;;;2.60;99.90;2.40;99631.00;;;;4989525;28;88790;-76
2022/02/07 07:15:08;;;;;;;2.23;0.93;;;2.60;99.90;2.40;99648.00;;;;4974120;28;104041;-81
2022/02/07 07:17:34;;;;;;;3.47;1.70;;;2.60;99.90;2.40;99658.00;;;;4985806;28;87797;-76
2022/02/07 07:20:05;;;;;;;3.70;1.17;;;2.60;99.90;2.50;99662.00;;;;4956599;28;88536;-77
2022/02/07 07:22:35;;;;;;;1.47;1.30;;;2.70;99.90;2.50;99657.00;;;;4954499;28;88957;-76
2022/02/07 07:25:03;;;;;;;5.20;1.93;;;2.70;99.90;2.50;99668.00;;;;4970901;28;87901;-77
2022/02/07 07:27:30;;;;;;;4.63;1.63;;;2.70;99.90;2.60;99676.00;;;;4971323;28;88485;-74
2022/02/07 07:29:56;;;;;;;1.87;1.40;;;2.80;99.90;2.60;99676.00;;;;4955388;28;88982;-74
2022/02/07 07:32:26;;;;;;;1.53;1.30;;;2.80;99.90;2.70;99680.00;;;;4971169;28;87927;-76
2022/02/07 07:34:52;;;;;;;2.40;1.03;;;2.80;99.90;2.70;99683.00;;;;4970205;28;87600;-74
2022/02/07 07:37:18;;;;;;;0.90;0.90;;;2.90;99.90;2.70;99684.00;;;;4956733;28;87756;-73
2022/02/07 07:39:44;;;;;;;1.90;1.20;;;2.90;99.90;2.80;99698.00;;;;4956186;28;87302;-73
2022/02/07 07:42:10;;;;;;;3.87;1.30;;;3.00;99.90;2.80;99711.00;;;;4957098;28;87785;-74
2022/02/07 07:44:38;;;;;;;2.93;0.77;;;3.00;99.90;2.80;99705.00;;;;4970425;28;87841;-74
2022/02/07 07:47:11;;;;;;;1.87;1.03;;;3.00;99.90;2.80;99710.00;;;;4969007;28;88756;-74
2022/02/07 07:49:56;;;;;;;3.60;0.77;;;3.10;99.90;2.90;99724.00;;;;4955616;28;88067;-73
2022/02/07 07:52:31;;;;;;;1.50;1.10;;;3.10;99.90;2.90;99726.00;;;;4969655;28;87795;-73
2022/02/07 08:01:20;;;;;;;7.20;1.17;;;3.10;99.90;2.90;99738.00;;;;4956089;28;87942;-72
2022/02/07 08:03:14;;;;;;;3.17;1.10;;;3.10;99.90;2.80;99762.00;;;;4960822;28;87630;-72
2022/02/07 08:08:19;;;;;;;1.50;1.00;;;3.10;99.90;2.90;99765.00;;;;4987081;28;87929;-73
2022/02/07 08:11:19;;;;;;;1.80;1.40;;;3.10;99.90;2.90;99769.00;;;;4973887;28;90587;-74
2022/02/07 08:13:40;;;;;;;1.03;0.80;;;4.00;99.90;2.90;99779.00;;;;4968997;28;89138;-78
2022/02/07 08:16:05;;;;;;;0.70;0.70;;;3.10;99.90;2.90;99788.00;;;;4972615;28;87792;-78
2022/02/07 08:18:31;;;;;;;1.17;0.90;;;3.20;99.90;3.00;99791.00;;;;4988910;28;108727;-73
2022/02/07 08:20:58;;;;;;;1.23;0.90;;;3.20;99.90;3.00;99786.00;;;;4975641;28;87990;-72
2022/02/07 08:23:23;;;;;;;0.87;0.80;;;3.20;99.90;3.00;99798.00;;;;4972774;28;99432;-76
2022/02/07 08:25:49;;;;;;;0.97;0.80;;;3.20;99.90;3.10;99803.00;;;;4970728;28;91300;-73
2022/02/07 08:28:15;;;;;;;3.93;1.33;;;3.30;99.90;3.10;99807.00;;;;4962737;28;89002;-76
2022/02/07 08:30:40;;;;;;;1.33;0.60;;;3.20;99.90;3.20;99798.00;;;;4969970;28;107368;-71
2022/02/07 08:33:06;;;;;;;2.57;1.63;;;3.30;99.90;3.20;99813.00;;;;4953453;28;116514;-72
2022/02/07 08:35:32;;;;;;;1.83;0.70;;;3.40;99.90;3.30;99822.00;;;;4956008;28;87786;-71
2022/02/07 08:37:59;;;;;;;0.47;0.47;;;3.40;99.90;3.30;99829.00;;;;4954226;28;108285;-73
2022/02/07 08:40:26;;;;;;;3.53;1.03;;;3.50;99.90;3.40;99832.00;;;;4955442;28;89788;-70
2022/02/07 08:42:54;;;;;;;3.27;0.83;;;3.50;99.90;3.40;99835.00;;;;4965772;28;90223;-68
2022/02/07 08:45:21;;;;;;;0.53;0.53;;;3.60;99.90;3.50;99841.00;;;;4956196;28;87601;-70
2022/02/07 08:47:47;;;;;;;2.67;0.77;;;3.70;99.90;3.50;99841.00;;;;4955726;28;87646;-70
2022/02/07 08:50:13;;;;;;;1.83;1.03;;;3.80;99.90;3.60;99848.00;;;;4955559;28;90459;-70
2022/02/07 08:52:42;;;;;;;4.37;0.67;;;3.70;99.90;3.60;99848.00;;;;4955506;28;88014;-69
2022/02/07 08:55:17;;;;;;;2.37;0.73;;;3.80;99.90;3.70;99851.00;;;;4970808;28;87646;-69
2022/02/07 08:57:46;;;;;;;0.83;0.63;;;3.80;99.90;3.70;99874.00;;;;4956488;28;88267;-68
2022/02/07 09:00:17;;;;;;;1.37;1.00;;;3.90;99.90;3.80;99870.00;;;;4969710;28;88043;-68
2022/02/07 09:07:47;;;;;;;2.37;0.80;;;4.10;99.90;4.00;99882.00;;;;4972404;28;87745;-70
2022/02/07 09:10:12;;;;;;;2.57;0.70;;;4.20;99.90;4.10;99890.00;;;;4974857;28;87820;-69
2022/02/07 09:12:42;;;;;;;1.10;0.73;;;4.10;99.90;4.10;99897.00;;;;4954669;28;116151;-68
2022/02/07 09:15:29;;;;;;;2.53;0.80;;;5.20;99.90;4.20;99878.00;;;;4956142;28;87803;-69
2022/02/07 09:17:56;;;;;;;0.50;0.50;;;4.30;99.90;4.20;99893.00;;;;4975409;28;87725;-70
2022/02/07 09:20:21;;;;;;;1.97;0.93;;;4.40;99.90;4.30;99914.00;;;;4972609;28;90386;-68
2022/02/07 09:22:48;;;;;;;0.80;0.70;;;4.40;99.90;4.30;99912.00;;;;4974152;28;115694;-66
2022/02/07 09:25:14;;;;;;;2.97;0.50;;;4.50;99.90;4.40;99929.00;;;;4975076;28;87807;-68
2022/02/07 09:27:41;;;;;;;0.63;0.50;;;4.50;99.90;4.40;99919.00;;;;4975442;28;88818;-72
2022/02/07 09:30:07;;;;;;;0.73;0.30;;;4.60;99.90;4.40;99918.00;;;;4976504;28;118365;-70
2022/02/07 09:32:34;;;;;;;3.50;0.67;;;4.60;99.90;4.50;99921.00;;;;4977573;28;95227;-70
2022/02/07 09:35:00;;;;;;;0.93;0.67;;;4.60;99.90;4.50;99927.00;;;;4978727;28;87858;-69
2022/02/07 09:37:25;;;;;;;0.67;0.30;;;4.70;99.90;4.50;99925.00;;;;4975612;28;88473;-69
2022/02/07 09:39:51;;;;;;;0.63;0.63;;;4.60;99.90;4.60;99933.00;;;;4968018;28;117028;-69
2022/02/07 09:42:17;;;;;;;3.63;0.60;;;4.70;99.90;4.60;99928.00;;;;4962411;28;117553;-70
2022/02/07 09:44:51;;;;;;;0.10;0.10;;;4.70;99.90;4.60;99940.00;;;;4958096;28;86885;-70
2022/02/07 09:47:17;;;;;;;0.67;0.43;;;4.80;99.90;4.70;99950.00;;;;4972322;28;87652;-69
2022/02/07 09:49:45;;;;;;;0.97;0.60;;;4.80;99.90;4.70;99942.00;;;;4958027;28;88974;-69
2022/02/07 09:52:11;;;;;;;0.83;0.50;;;4.90;99.90;4.70;99958.00;;;;4957683;28;88573;-69
2022/02/07 09:54:39;;;;;;;0.80;0.73;;;4.80;99.90;4.70;99959.00;;;;4976848;28;109637;-69
2022/02/07 09:57:05;;;;;;;2.47;0.50;;;4.90;99.90;4.70;99962.00;;;;4978431;28;87812;-69
2022/02/07 09:59:32;;;;;;;0.50;0.33;;;4.90;99.90;4.70;99983.00;;;;4973174;28;89120;-70
2022/02/07 10:02:05;;;;;;;1.47;0.63;;;4.90;99.90;4.70;99979.00;;;;4977711;28;88735;-72
2022/02/07 10:04:43;;;;;;;0.30;0.30;;;4.90;99.90;4.70;99991.00;;;;4977418;28;87679;-71
2022/02/07 10:07:19;;;;;;;1.57;0.50;;;4.90;99.90;4.70;99988.00;;;;4974392;28;88024;-71
2022/02/07 10:09:55;;;;;;;0.60;0.53;;;4.90;99.90;4.70;100000.00;;;;4958233;28;87984;-69
2022/02/07 10:12:30;;;;;;;1.93;0.50;;;4.80;99.90;4.70;100003.00;;;;4955528;28;88242;-72
2022/02/07 10:15:22;;;;;;;2.27;0.70;;;4.80;99.90;4.70;100013.00;;;;4957768;28;87677;-70
2022/02/07 10:18:00;;;;;;;0.77;0.40;;;4.80;99.90;4.70;100015.00;;;;4957495;28;88844;-70
2022/02/07 10:20:57;;;;;;;1.30;0.53;;;4.90;99.90;4.80;100029.00;;;;4957362;28;87861;-71
2022/02/07 10:40:33;;;;;;;4.30;0.60;;;5.40;99.90;5.40;100050.00;;;;4955326;28;87718;-73
2022/02/07 10:45:52;;;;;;;1.00;0.60;;;5.60;99.90;5.70;100059.00;;;;4955965;28;88626;-74
2022/02/07 10:48:48;;;;;;;3.60;0.87;;;5.70;99.90;5.70;100079.00;;;;4967100;28;87667;-73
2022/02/07 10:51:25;;;;;;;4.10;0.63;;;6.10;99.90;5.80;100064.00;;;;4976906;28;87852;-70
2022/02/07 10:54:02;;;;;;;0.83;0.57;;;6.00;99.90;5.90;100091.00;;;;4976926;28;87860;-71
2022/02/07 10:56:36;;;;;;;0.50;0.50;;;5.60;99.90;6.00;100099.00;;;;4991437;28;87812;-74
2022/02/07 10:59:07;;;;;;;3.37;0.97;;;6.00;99.90;6.00;100090.00;;;;4975216;28;87805;-71
2022/02/07 11:04:14;;;;;;;5.10;0.73;;;6.20;99.90;6.00;100107.00;;;;4971668;28;87273;-71
2022/02/07 11:06:46;;;;;;;2.30;0.90;;;6.20;99.90;6.00;100108.00;;;;4958025;28;87780;-73
2022/02/07 11:09:22;;;;;;;7.30;0.97;;;6.10;99.90;6.00;100118.00;;;;4957495;28;87752;-73
2022/02/07 11:14:37;;;;;;;4.17;0.43;;;6.10;99.90;6.10;100115.00;;;;4955879;28;105608;-69
2022/02/07 11:17:25;;;;;;;1.77;0.87;;;6.20;99.90;6.10;100124.00;;;;4968743;28;87988;-71
2022/02/07 11:20:04;;;;;;;2.03;0.87;;;6.20;99.90;6.10;100124.00;;;;4968713;28;87621;-69
2022/02/07 11:25:49;;;;;;;1.60;0.90;;;6.20;99.90;6.10;100141.00;;;;4954023;28;87657;-70
2022/02/07 11:28:26;;;;;;;1.93;1.03;;;6.20;99.90;6.10;100144.00;;;;4967598;28;88023;-70
2022/02/07 11:31:06;;;;;;;3.77;1.47;;;6.20;99.90;6.10;100154.00;;;;4971834;28;87073;-71
2022/02/07 11:33:36;;;;;;;6.50;1.23;;;6.20;99.90;6.10;100152.00;;;;4968779;28;87697;-71
2022/02/07 11:36:04;;;;;;;4.00;0.90;;;6.30;99.90;6.10;100167.00;;;;4973979;28;88654;-70
2022/02/07 11:38:30;;;;;;;2.57;1.40;;;6.20;99.90;6.10;100163.00;;;;4982873;28;89128;-70
2022/02/07 11:41:02;;;;;;;4.33;1.50;;;6.30;99.90;6.10;100166.00;;;;4976160;28;94991;-70
2022/02/07 11:43:36;;;;;;;3.87;1.13;;;6.30;99.90;6.10;100167.00;;;;4989625;28;87930;-71
2022/02/07 11:46:13;;;;;;;4.53;1.20;;;6.30;99.90;6.20;100170.00;;;;4976435;28;89195;-69
2022/02/07 11:48:44;;;;;;;2.80;1.50;;;6.30;99.90;6.20;100162.00;;;;4978209;28;87895;-70
2022/02/07 11:51:34;;;;;;;13.30;1.40;;;6.30;99.90;6.20;100177.00;;;;4955950;28;87978;-71
2022/02/07 11:54:04;;;;;;;7.47;1.47;;;6.30;99.90;6.20;100173.00;;;;4970410;28;88093;-72
2022/02/07 12:00:03;;;;;;;1.23;0.70;;;6.40;99.90;6.30;100185.00;;;;4955293;28;87857;-71
2022/02/07 12:02:04;;;;;;;1.50;0.93;;;6.40;99.90;6.50;100195.00;;;;4946410;28;87713;-72
2022/02/07 12:04:50;;;;;;;6.47;1.10;;;6.60;99.90;6.70;100194.00;;;;4955597;28;89207;-72
2022/02/07 12:07:31;;;;;;;3.33;1.13;;;6.70;99.90;6.90;100198.00;;;;4956564;28;87773;-71
2022/02/07 12:10:02;;;;;;;5.57;0.93;;;6.80;99.90;7.00;100200.00;;;;4955625;28;88711;-73
2022/02/07 12:12:46;;;;;;;2.47;0.97;;;7.00;99.90;7.00;100200.00;;;;4956685;28;87786;-73
2022/02/07 12:15:12;;;;;;;2.27;1.10;;;7.10;99.90;7.00;100212.00;;;;4970584;28;87949;-71
2022/02/07 12:17:45;;;;;;;7.63;1.27;;;7.00;99.90;6.90;100217.00;;;;4956015;28;89026;-72
2022/02/07 12:20:17;;;;;;;5.07;1.03;;;7.00;99.40;6.90;100217.00;;;;4969855;28;87875;-72
2022/02/07 12:22:50;;;;;;;1.30;0.87;;;7.00;98.90;6.80;100225.00;;;;4956639;28;87130;-71
2022/02/07 12:25:46;;;;;;;2.93;1.10;;;7.00;99.90;6.80;100234.00;;;;4955878;28;87859;-70
2022/02/07 12:28:45;;;;;;;2.57;0.80;;;7.00;98.90;6.90;100207.00;;;;4955872;28;88386;-73
2022/02/07 12:31:18;;;;;;;7.80;1.37;;;7.00;98.80;7.30;100222.00;;;;4974770;28;90467;-73
2022/02/07 12:34:00;;;;;;;2.87;1.00;;;7.30;98.70;7.80;100233.00;;;;4990581;28;87732;-74
2022/02/07 12:36:29;;;;;;;3.27;0.80;;;7.70;97.70;8.10;100229.00;;;;4976320;28;88186;-72
2022/02/07 12:38:57;;;;;;;8.80;1.83;;;8.00;96.40;8.30;100238.00;;;;4960305;28;99968;-72
2022/02/07 12:41:24;;;;;;;4.43;1.00;;;8.30;94.20;8.30;100252.00;;;;4952910;28;88769;-73
2022/02/07 12:43:51;;;;;;;9.73;1.33;;;8.40;94.70;8.20;100258.00;;;;4970123;28;87905;-71
2022/02/07 12:46:24;;;;;;;4.23;1.17;;;8.30;97.40;8.00;100273.00;;;;4956128;28;88233;-74
2022/02/07 12:48:55;;;;;;;3.07;0.83;;;8.10;98.70;7.80;100272.00;;;;4955602;28;88330;-73
2022/02/07 12:51:34;;;;;;;4.00;1.10;;;7.80;97.70;7.60;100260.00;;;;4969351;28;87760;-70
2022/02/07 12:54:00;;;;;;;1.47;0.67;;;7.90;97.30;7.70;100270.00;;;;4955248;28;87601;-70
2022/02/07 12:56:32;;;;;;;4.53;0.90;;;7.80;97.80;7.60;100271.00;;;;4954850;28;91361;-71
2022/02/07 12:58:58;;;;;;;3.13;0.90;;;7.70;95.30;7.40;100280.00;;;;4972538;28;88185;-70
2022/02/07 13:01:38;;;;;;;4.20;0.60;;;7.60;92.20;7.20;100308.00;;;;4966325;28;97641;-72
2022/02/07 13:04:23;;;;;;;6.03;1.00;;;7.40;92.00;7.10;100296.00;;;;4972540;28;87891;-70
2022/02/07 13:07:01;;;;;;;6.87;0.90;;;7.30;93.00;7.00;100300.00;;;;4973344;28;87782;-70
2022/02/07 13:09:33;;;;;;;0.73;0.53;;;7.20;92.30;7.00;100298.00;;;;4958479;28;87918;-72
2022/02/07 13:14:45;;;;;;;1.13;0.67;;;7.30;92.90;7.30;100300.00;;;;4973068;28;87309;-70
2022/02/07 13:17:11;;;;;;;2.93;1.20;;;7.30;93.50;7.30;100311.00;;;;4973964;28;87678;-72
2022/02/07 13:19:43;;;;;;;1.67;1.10;;;7.40;92.70;7.40;100290.00;;;;4978245;28;87750;-71
2022/02/07 13:22:11;;;;;;;2.33;1.00;;;7.40;92.30;7.50;100318.00;;;;4977581;28;88579;-71
2022/02/07 13:24:39;;;;;;;2.00;1.07;;;7.50;92.90;7.70;100322.00;;;;4977786;28;87734;-71
2022/02/07 13:27:10;;;;;;;2.87;0.90;;;7.80;92.40;7.70;100336.00;;;;4978591;28;87837;-71
2022/02/07 13:29:44;;;;;;;5.37;1.23;;;7.90;91.50;7.70;100339.00;;;;4958136;28;88995;-71
2022/02/07 13:32:18;;;;;;;4.03;1.10;;;7.70;91.80;7.60;100355.00;;;;4977140;28;89598;-69
2022/02/07 13:34:47;;;;;;;0.93;0.80;;;7.70;91.10;7.50;100348.00;;;;4992627;28;87995;-69